Time;durP1;ratioP1;P1;durP2;ratioP2;P2;SDS_P1;SDS_P2;PMS_P1;PMS_P2;Temp;Humidity;BMP_temperature;BMP_pressure;BME280_temperature;BME280_humidity;BME280_pressure;Samples;Min_cycle;Max_cycle;Signal;HPM_P1;HPM_P2
2021/05/03 00:03:47;;;;;;;5.07;4.67;;;10.20;90.30;;;;;;10378733;28;20301;-79
2021/05/03 00:08:49;;;;;;;4.30;4.00;;;10.20;88.70;;;;;;10395822;28;20297;-79
2021/05/03 00:13:51;;;;;;;4.60;4.20;;;10.10;89.70;;;;;;10380826;28;20201;-79
2021/05/03 00:18:53;;;;;;;4.40;4.10;;;9.80;90.30;;;;;;10380503;28;20690;-79
2021/05/03 00:23:56;;;;;;;4.97;4.60;;;9.60;90.70;;;;;;10366265;28;20209;-79
2021/05/03 00:28:58;;;;;;;5.83;4.07;;;9.40;90.80;;;;;;10401484;28;20214;-79
2021/05/03 00:33:59;;;;;;;4.93;4.53;;;9.20;90.90;;;;;;10379811;28;20202;-79
2021/05/03 00:39:02;;;;;;;4.30;4.00;;;9.00;91.30;;;;;;10413756;28;20210;-80
2021/05/03 00:44:04;;;;;;;4.63;4.23;;;8.90;91.00;;;;;;10423200;28;20650;-79
2021/05/03 00:49:07;;;;;;;5.77;4.70;;;8.80;91.50;;;;;;10389231;28;20216;-80
2021/05/03 00:54:09;;;;;;;4.47;4.17;;;8.70;91.80;;;;;;10403408;28;20213;-79
2021/05/03 00:59:11;;;;;;;5.33;4.77;;;8.60;92.00;;;;;;10418021;28;20252;-79
2021/05/03 01:04:12;;;;;;;5.00;4.60;;;8.60;92.40;;;;;;10383081;28;20220;-79
2021/05/03 01:09:15;;;;;;;5.90;5.40;;;8.60;92.10;;;;;;10404006;28;20688;-79
2021/05/03 01:14:16;;;;;;;5.23;4.83;;;8.70;92.00;;;;;;10403942;28;20209;-79
2021/05/03 01:19:20;;;;;;;5.47;5.00;;;8.70;92.40;;;;;;10403801;28;20789;-79
2021/05/03 01:24:23;;;;;;;6.70;6.10;;;8.70;92.70;;;;;;10404160;28;20190;-80
2021/05/03 01:29:25;;;;;;;6.27;5.77;;;8.70;92.50;;;;;;10421276;28;20707;-80
2021/05/03 01:34:26;;;;;;;6.90;6.33;;;8.70;92.80;;;;;;10387960;28;20233;-80
2021/05/03 01:39:29;;;;;;;8.17;7.40;;;8.70;93.50;;;;;;10386579;28;20226;-80
2021/05/03 01:44:30;;;;;;;7.60;7.00;;;8.70;93.40;;;;;;10421382;28;20217;-79
2021/05/03 01:49:32;;;;;;;6.67;6.13;;;8.80;93.20;;;;;;10421883;28;20210;-80
2021/05/03 01:54:34;;;;;;;7.30;6.70;;;8.80;93.10;;;;;;10421648;28;20190;-79
2021/05/03 01:59:36;;;;;;;7.30;6.70;;;8.80;93.60;;;;;;10403442;28;20297;-80
2021/05/03 02:04:38;;;;;;;7.07;6.47;;;8.70;93.50;;;;;;10421180;28;20213;-80
2021/05/03 02:09:42;;;;;;;7.00;6.30;;;8.70;93.80;;;;;;10402968;28;20206;-79
2021/05/03 02:14:44;;;;;;;7.50;6.90;;;8.60;93.90;;;;;;10403051;28;20221;-80
2021/05/03 02:19:46;;;;;;;7.50;6.90;;;8.50;93.50;;;;;;10420470;28;20218;-80
2021/05/03 02:24:48;;;;;;;7.13;6.53;;;8.40;93.90;;;;;;10419357;28;20649;-80
2021/05/03 02:29:50;;;;;;;7.83;7.23;;;8.30;94.40;;;;;;10402904;28;20216;-79
2021/05/03 02:34:52;;;;;;;8.20;7.43;;;8.30;94.40;;;;;;10400599;28;20289;-80
2021/05/03 02:39:54;;;;;;;8.73;8.03;;;8.20;95.10;;;;;;10402185;28;20226;-80
2021/05/03 02:44:56;;;;;;;9.63;8.73;;;8.20;95.10;;;;;;10419788;28;20198;-80
2021/05/03 02:49:58;;;;;;;8.40;7.70;;;8.10;94.80;;;;;;10401616;28;20205;-80
2021/05/03 02:55:00;;;;;;;8.20;7.50;;;8.10;95.00;;;;;;10420151;28;20190;-80
2021/05/03 03:00:04;;;;;;;8.00;7.40;;;8.00;95.20;;;;;;10385530;28;20229;-80
2021/05/03 03:05:06;;;;;;;8.77;8.03;;;7.90;95.00;;;;;;10384284;28;20194;-80
2021/05/03 03:10:10;;;;;;;7.97;7.37;;;7.80;95.20;;;;;;10401399;28;20210;-80
2021/05/03 03:15:14;;;;;;;9.03;8.30;;;7.70;95.10;;;;;;10400363;28;20297;-80
2021/05/03 03:20:17;;;;;;;9.20;8.23;;;7.60;95.20;;;;;;10400191;28;20272;-80
2021/05/03 03:25:19;;;;;;;9.70;8.43;;;7.50;95.30;;;;;;10422299;28;20189;-80
2021/05/03 03:30:21;;;;;;;9.77;8.90;;;7.50;95.20;;;;;;10430473;28;20205;-80
2021/05/03 03:35:24;;;;;;;9.60;8.70;;;7.40;95.40;;;;;;10411579;28;20658;-79
2021/05/03 03:40:27;;;;;;;10.07;9.07;;;7.40;95.60;;;;;;10456318;22;20243;-77
2021/05/03 03:45:28;;;;;;;9.90;9.03;;;7.50;96.10;;;;;;10494040;28;20199;-77
2021/05/03 03:50:30;;;;;;;9.83;8.83;;;7.60;96.20;;;;;;10493783;28;20203;-77
2021/05/03 03:55:32;;;;;;;10.67;9.67;;;7.70;95.60;;;;;;10494132;28;20200;-77
2021/05/03 04:00:34;;;;;;;10.37;9.53;;;7.70;95.80;;;;;;10493883;28;20224;-77
2021/05/03 04:05:52;;;;;;;9.93;9.13;;;7.70;95.70;;;;;;10491786;28;20382;-77
2021/05/03 04:11:03;;;;;;;9.83;9.03;;;7.70;96.10;;;;;;10489673;28;20326;-78
2021/05/03 04:21:45;;;;;;;10.67;9.57;;;7.50;95.90;;;;;;10439073;28;20236;-77
2021/05/03 04:26:47;;;;;;;10.03;9.23;;;7.40;95.90;;;;;;10492225;28;20201;-77
2021/05/03 04:31:49;;;;;;;10.13;9.27;;;7.40;96.10;;;;;;10459110;28;20209;-77
2021/05/03 04:36:51;;;;;;;9.77;8.93;;;7.40;96.00;;;;;;10458205;28;20199;-78
2021/05/03 04:41:53;;;;;;;10.40;9.50;;;7.40;96.20;;;;;;10494952;28;20692;-78
2021/05/03 04:46:55;;;;;;;11.70;10.70;;;7.40;96.50;;;;;;10496988;28;20212;-78
2021/05/03 04:51:56;;;;;;;11.70;10.60;;;7.40;96.60;;;;;;10539970;28;20218;-78
2021/05/03 04:56:59;;;;;;;10.73;9.83;;;7.40;96.50;;;;;;10526778;28;20222;-78
2021/05/03 05:02:00;;;;;;;11.23;10.20;;;7.40;96.60;;;;;;10510356;28;20223;-78
2021/05/03 05:07:02;;;;;;;10.60;9.70;;;7.50;96.80;;;;;;10527780;28;20241;-79
2021/05/03 05:12:05;;;;;;;10.73;9.77;;;7.50;96.60;;;;;;10537551;28;20215;-79
2021/05/03 05:17:06;;;;;;;11.17;10.03;;;7.50;96.90;;;;;;10484551;28;20224;-79
2021/05/03 05:22:08;;;;;;;12.27;11.07;;;7.60;96.70;;;;;;10507289;28;20232;-78
2021/05/03 05:27:11;;;;;;;10.97;9.87;;;7.60;96.80;;;;;;10504853;28;20197;-79
2021/05/03 05:32:12;;;;;;;11.03;10.13;;;7.70;96.70;;;;;;10497018;28;20230;-79
2021/05/03 05:37:14;;;;;;;11.63;10.43;;;7.80;97.20;;;;;;10503961;28;20195;-79
2021/05/03 05:42:16;;;;;;;10.60;9.80;;;8.00;96.50;;;;;;10507236;28;20271;-79
2021/05/03 05:47:18;;;;;;;11.63;10.53;;;8.10;96.10;;;;;;10467441;28;20201;-79
2021/05/03 05:52:19;;;;;;;11.23;10.23;;;8.30;96.10;;;;;;10503243;28;20231;-79
2021/05/03 05:57:22;;;;;;;13.07;9.67;;;8.40;95.80;;;;;;10499938;28;20219;-79
2021/05/03 06:02:24;;;;;;;10.67;9.70;;;8.50;95.90;;;;;;10499315;28;20245;-77
2021/05/03 06:07:26;;;;;;;11.80;10.80;;;8.50;96.20;;;;;;10499866;28;20193;-77
2021/05/03 06:12:28;;;;;;;11.50;10.50;;;8.60;96.80;;;;;;10481184;28;20359;-79
2021/05/03 06:17:30;;;;;;;11.00;10.10;;;8.70;96.80;;;;;;10500249;28;20188;-78
2021/05/03 06:22:32;;;;;;;11.00;10.00;;;8.80;96.30;;;;;;10481055;28;20282;-78
2021/05/03 06:27:35;;;;;;;10.90;10.00;;;8.90;96.10;;;;;;10481421;28;20732;-79
2021/05/03 06:32:36;;;;;;;9.00;8.30;;;9.00;94.80;;;;;;10466398;28;20208;-78
2021/05/03 06:37:38;;;;;;;8.90;8.20;;;9.10;94.40;;;;;;10502973;28;20203;-79
2021/05/03 06:42:41;;;;;;;9.80;8.90;;;9.20;94.00;;;;;;10500706;28;20299;-79
2021/05/03 06:47:44;;;;;;;9.03;8.23;;;9.40;95.00;;;;;;10482375;28;20272;-78
2021/05/03 06:52:46;;;;;;;9.03;8.20;;;9.50;93.70;;;;;;10500819;28;20572;-79
2021/05/03 06:57:48;;;;;;;8.93;8.23;;;9.60;93.60;;;;;;10465858;28;20188;-78
2021/05/03 07:02:50;;;;;;;10.57;9.57;;;9.80;92.60;;;;;;10499381;28;20333;-79
2021/05/03 07:07:52;;;;;;;8.77;7.87;;;10.00;92.50;;;;;;10500827;28;20200;-79
2021/05/03 07:12:54;;;;;;;8.70;7.90;;;10.10;92.10;;;;;;10464737;28;20212;-78
2021/05/03 07:17:56;;;;;;;9.57;8.77;;;10.30;92.30;;;;;;10499209;28;20286;-80
2021/05/03 07:22:58;;;;;;;9.03;8.27;;;10.60;91.80;;;;;;10480374;28;20228;-77
2021/05/03 07:28:01;;;;;;;8.43;7.73;;;10.80;90.00;;;;;;10481442;28;20250;-79
2021/05/03 07:33:02;;;;;;;8.80;8.00;;;11.20;90.40;;;;;;10482463;28;20299;-79
2021/05/03 07:38:04;;;;;;;8.63;7.90;;;11.70;86.90;;;;;;10462989;28;20217;-78
2021/05/03 07:43:06;;;;;;;8.23;7.43;;;12.20;86.00;;;;;;10466629;28;20256;-79
2021/05/03 07:48:08;;;;;;;8.57;7.87;;;12.60;84.60;;;;;;10486756;28;20188;-78
2021/05/03 07:53:10;;;;;;;8.20;7.50;;;13.00;85.50;;;;;;10478841;28;20209;-78
2021/05/03 07:58:13;;;;;;;10.57;9.57;;;13.20;84.90;;;;;;10496316;28;20192;-79
2021/05/03 08:03:19;;;;;;;10.10;9.17;;;13.30;82.60;;;;;;10478067;28;20270;-77
2021/05/03 08:08:22;;;;;;;9.57;8.77;;;13.20;81.40;;;;;;10473202;28;20208;-78
2021/05/03 08:13:27;;;;;;;10.87;9.83;;;13.10;80.60;;;;;;10477296;28;20249;-79
2021/05/03 08:18:28;;;;;;;9.20;8.30;;;13.20;82.30;;;;;;10476712;28;20313;-79
2021/05/03 08:23:30;;;;;;;9.50;8.60;;;13.20;80.10;;;;;;10499796;28;20213;-79
2021/05/03 08:28:32;;;;;;;8.93;8.20;;;13.00;79.30;;;;;;10490883;28;20196;-78
2021/05/03 08:33:34;;;;;;;10.23;7.80;;;12.70;77.20;;;;;;10503191;28;20189;-79
2021/05/03 08:38:36;;;;;;;8.50;7.77;;;12.50;81.70;;;;;;10501891;28;20295;-78
2021/05/03 08:43:40;;;;;;;9.43;8.57;;;12.60;78.80;;;;;;10467882;28;20224;-78
2021/05/03 08:48:52;;;;;;;8.30;7.60;;;13.00;81.50;;;;;;10467523;28;20250;-79
2021/05/03 08:53:59;;;;;;;9.60;7.50;;;13.30;79.70;;;;;;10484657;28;20223;-78
2021/05/03 08:59:02;;;;;;;8.53;7.87;;;13.60;79.10;;;;;;10502383;28;20710;-79
2021/05/03 09:04:04;;;;;;;9.13;8.43;;;13.70;74.40;;;;;;10487924;28;20663;-79
2021/05/03 09:09:10;;;;;;;8.77;8.07;;;13.50;73.70;;;;;;10484462;28;20635;-79
2021/05/03 09:14:13;;;;;;;8.57;7.87;;;13.40;77.20;;;;;;10500165;28;20211;-79
2021/05/03 09:19:14;;;;;;;8.30;7.70;;;14.00;75.60;;;;;;10501896;28;20274;-78
2021/05/03 09:24:19;;;;;;;7.97;7.27;;;14.90;72.90;;;;;;10489280;28;20719;-80
2021/05/03 09:29:36;;;;;;;7.87;6.93;;;15.40;67.70;;;;;;10504982;28;20285;-79
2021/05/03 09:34:40;;;;;;;8.27;7.57;;;15.20;68.30;;;;;;10498286;28;20196;-78
2021/05/03 09:39:50;;;;;;;7.30;6.60;;;14.90;67.90;;;;;;10529743;22;20227;-80
2021/05/03 09:45:06;;;;;;;8.80;7.13;;;14.80;68.80;;;;;;10515126;28;20257;-81
2021/05/03 09:50:11;;;;;;;8.30;7.50;;;14.70;66.80;;;;;;10550127;28;20251;-80
2021/05/03 09:55:34;;;;;;;5.40;5.00;;;14.60;68.20;;;;;;10526651;28;20196;-81
2021/05/03 10:00:38;;;;;;;5.73;5.27;;;14.60;64.80;;;;;;10549818;28;20281;-81
2021/05/03 10:05:40;;;;;;;8.60;5.70;;;14.70;60.40;;;;;;10547714;28;20192;-80
2021/05/03 10:10:47;;;;;;;5.10;4.60;;;15.00;63.60;;;;;;10561205;28;20204;-80
2021/05/03 10:15:54;;;;;;;5.20;4.80;;;15.20;60.00;;;;;;10558099;28;20669;-80
2021/05/03 10:20:56;;;;;;;5.30;4.80;;;15.50;62.40;;;;;;10546601;28;20224;-80
2021/05/03 10:25:59;;;;;;;5.47;4.97;;;15.50;57.10;;;;;;10546537;28;20667;-80
2021/05/03 10:31:02;;;;;;;5.70;5.20;;;15.30;59.70;;;;;;10546578;28;20227;-81
2021/05/03 10:36:05;;;;;;;4.57;4.27;;;15.30;57.30;;;;;;10546107;28;20655;-80
2021/05/03 10:41:23;;;;;;;5.00;4.60;;;15.50;56.40;;;;;;10545521;28;20227;-80
2021/05/03 10:52:02;;;;;;;5.40;4.93;;;15.50;57.30;;;;;;10547574;28;20287;-81
2021/05/03 10:57:05;;;;;;;4.67;4.37;;;15.20;57.50;;;;;;10543131;28;20188;-80
2021/05/03 11:02:12;;;;;;;4.60;4.30;;;15.00;58.00;;;;;;10547024;28;20216;-81
2021/05/03 11:07:14;;;;;;;5.67;4.67;;;15.00;59.20;;;;;;10543001;28;20221;-81
2021/05/03 11:12:31;;;;;;;5.30;4.80;;;15.20;58.00;;;;;;10542984;28;20758;-80
2021/05/03 11:17:34;;;;;;;4.70;4.40;;;15.30;53.50;;;;;;10546478;28;20191;-80
2021/05/03 11:22:44;;;;;;;4.63;4.23;;;15.40;58.20;;;;;;10530263;28;20239;-80
2021/05/03 11:27:51;;;;;;;3.73;3.40;;;15.50;54.90;;;;;;10532446;28;20191;-80
2021/05/03 11:32:57;;;;;;;4.03;3.83;;;15.60;54.30;;;;;;10512329;28;20265;-80
2021/05/03 11:38:04;;;;;;;4.47;4.17;;;15.60;53.70;;;;;;10511942;28;20716;-80
2021/05/03 11:43:48;;;;;;;4.17;3.87;;;15.70;53.90;;;;;;10487671;28;20631;-81
2021/05/03 11:48:56;;;;;;;4.07;3.67;;;15.80;53.50;;;;;;10550286;28;20210;-80
2021/05/03 11:53:58;;;;;;;4.07;3.77;;;15.90;52.80;;;;;;10549676;28;20244;-81
2021/05/03 11:59:08;;;;;;;4.53;4.13;;;16.00;52.00;;;;;;10559138;28;20203;-81
2021/05/03 12:04:36;;;;;;;3.80;3.50;;;16.00;50.40;;;;;;10543236;28;20281;-79
2021/05/03 12:09:40;;;;;;;2.93;2.73;;;16.00;50.90;;;;;;10539148;28;20292;-79
2021/05/03 12:14:49;;;;;;;4.40;4.00;;;15.80;50.20;;;;;;10558130;28;20647;-81
2021/05/03 12:20:03;;;;;;;3.20;2.90;;;15.50;48.40;;;;;;10535559;28;20311;-80
2021/05/03 12:25:13;;;;;;;3.17;2.97;;;15.30;52.30;;;;;;10546313;28;20232;-80
2021/05/03 12:30:32;;;;;;;3.43;3.20;;;15.40;50.50;;;;;;10530778;28;20223;-79
2021/05/03 12:35:38;;;;;;;3.20;3.00;;;15.50;48.50;;;;;;10539110;28;20211;-80
2021/05/03 12:40:41;;;;;;;2.83;2.63;;;15.50;53.30;;;;;;10551574;28;20223;-80
2021/05/03 12:46:04;;;;;;;3.00;2.80;;;15.50;49.70;;;;;;10521228;28;20200;-80
2021/05/03 12:51:23;;;;;;;2.50;2.37;;;15.60;50.90;;;;;;10568472;28;20223;-80
2021/05/03 12:56:31;;;;;;;3.57;3.27;;;15.70;50.60;;;;;;10551261;28;20202;-80
2021/05/03 13:01:42;;;;;;;5.53;2.80;;;15.70;52.40;;;;;;10538007;28;20286;-80
2021/05/03 13:23:20;;;;;;;2.50;2.40;;;15.80;47.60;;;;;;10543854;28;20224;-81
2021/05/03 13:28:20;;;;;;;3.10;2.90;;;15.70;46.60;;;;;;10521802;28;20215;-80
2021/05/03 13:33:22;;;;;;;3.03;2.83;;;15.70;50.50;;;;;;10529240;28;20220;-80
2021/05/03 13:38:24;;;;;;;3.03;2.57;;;15.80;47.50;;;;;;10506360;28;20207;-80
2021/05/03 13:43:26;;;;;;;3.30;2.67;;;15.80;51.70;;;;;;10523965;28;20259;-80
2021/05/03 13:48:28;;;;;;;4.37;2.60;;;15.80;52.30;;;;;;10541966;28;20200;-80
2021/05/03 13:53:30;;;;;;;2.00;1.90;;;15.90;50.70;;;;;;10542368;28;20735;-80
2021/05/03 13:58:32;;;;;;;2.40;2.20;;;15.90;50.20;;;;;;10542936;28;20210;-80
2021/05/03 14:03:34;;;;;;;2.33;2.23;;;15.90;47.90;;;;;;10523955;28;20227;-80
2021/05/03 14:08:37;;;;;;;2.33;2.13;;;15.80;49.90;;;;;;10541805;28;20214;-80
2021/05/03 14:13:39;;;;;;;3.07;2.77;;;15.60;51.20;;;;;;10542286;28;20219;-80
2021/05/03 14:18:41;;;;;;;2.60;2.40;;;15.40;48.90;;;;;;10524279;28;20204;-80
2021/05/03 14:23:43;;;;;;;4.33;2.70;;;15.40;48.30;;;;;;10539939;28;20219;-80
2021/05/03 14:28:48;;;;;;;3.17;2.97;;;15.30;48.00;;;;;;10522395;28;20520;-80
2021/05/03 14:33:54;;;;;;;2.50;2.40;;;15.20;48.80;;;;;;10540948;28;20211;-80
2021/05/03 14:38:58;;;;;;;3.47;3.17;;;15.20;47.10;;;;;;10497439;28;20204;-80
2021/05/03 14:43:59;;;;;;;2.20;2.10;;;15.30;48.70;;;;;;10541199;28;20218;-80
2021/05/03 14:49:16;;;;;;;3.10;2.90;;;15.40;46.70;;;;;;10541097;28;20648;-80
2021/05/03 14:54:29;;;;;;;2.83;2.73;;;15.30;47.60;;;;;;10540060;28;20711;-80
2021/05/03 14:59:33;;;;;;;2.57;2.47;;;15.10;45.80;;;;;;10539811;28;20234;-80
2021/05/03 15:04:36;;;;;;;2.67;2.40;;;15.00;48.70;;;;;;10557562;28;20244;-80
2021/05/03 15:09:39;;;;;;;2.43;2.17;;;15.00;47.40;;;;;;10541431;28;20664;-80
2021/05/03 15:14:52;;;;;;;2.80;2.60;;;15.20;51.90;;;;;;10546776;28;20582;-80
2021/05/03 15:19:59;;;;;;;2.90;2.70;;;15.20;50.80;;;;;;10534733;28;20309;-80
2021/05/03 15:25:04;;;;;;;3.13;2.70;;;15.10;50.10;;;;;;10531808;28;20195;-80
2021/05/03 15:30:14;;;;;;;2.40;2.30;;;15.10;53.20;;;;;;10523731;28;20597;-80
2021/05/03 15:35:18;;;;;;;2.10;2.00;;;15.00;51.60;;;;;;10560420;28;20203;-80
2021/05/03 15:40:23;;;;;;;2.43;2.30;;;14.90;51.60;;;;;;10553603;28;20220;-81
2021/05/03 15:45:26;;;;;;;2.30;2.20;;;14.80;50.20;;;;;;10560036;28;20230;-82
2021/05/03 15:50:28;;;;;;;2.40;2.30;;;14.70;51.70;;;;;;10560334;28;20252;-81
2021/05/03 15:55:30;;;;;;;6.03;2.53;;;14.70;51.50;;;;;;10555482;28;20220;-82
2021/05/03 16:00:32;;;;;;;2.30;2.20;;;14.80;54.30;;;;;;10544936;28;20687;-80
2021/05/03 16:05:36;;;;;;;2.23;2.03;;;14.80;47.40;;;;;;10538419;28;20206;-82
2021/05/03 16:10:39;;;;;;;2.57;2.47;;;14.90;53.00;;;;;;10504374;28;20220;-81
2021/05/03 16:15:41;;;;;;;2.73;2.53;;;15.10;53.90;;;;;;10548158;28;20227;-80
2021/05/03 16:20:43;;;;;;;2.77;2.57;;;15.20;48.50;;;;;;10515683;28;20300;-80
2021/05/03 16:25:45;;;;;;;2.20;2.10;;;15.20;49.20;;;;;;10506568;28;20614;-81
2021/05/03 16:30:48;;;;;;;2.90;2.70;;;15.40;52.80;;;;;;10490333;28;20208;-81
2021/05/03 16:35:49;;;;;;;4.27;3.80;;;15.50;51.90;;;;;;10536502;28;20220;-79
2021/05/03 16:40:53;;;;;;;3.93;3.63;;;15.60;50.00;;;;;;10532880;28;20642;-81
2021/05/03 16:45:55;;;;;;;4.40;4.00;;;15.60;51.30;;;;;;10522700;28;20223;-80
2021/05/03 16:50:57;;;;;;;4.27;3.93;;;15.50;54.20;;;;;;10522542;28;20220;-79
2021/05/03 16:56:00;;;;;;;5.10;4.60;;;15.30;55.10;;;;;;10513418;28;20250;-81
2021/05/03 17:01:01;;;;;;;3.90;3.60;;;15.10;53.70;;;;;;10494725;28;20248;-80
2021/05/03 17:06:03;;;;;;;3.90;3.60;;;15.00;54.10;;;;;;10536569;28;20211;-79
2021/05/03 17:11:06;;;;;;;3.83;3.53;;;14.80;55.40;;;;;;10542459;28;20218;-81
2021/05/03 17:16:08;;;;;;;4.63;4.23;;;14.70;55.60;;;;;;10540010;28;20554;-80
2021/05/03 17:21:10;;;;;;;4.07;3.77;;;14.70;56.00;;;;;;10547866;28;20298;-81
2021/05/03 17:26:13;;;;;;;3.80;3.17;;;14.70;58.00;;;;;;10537447;28;20192;-80
2021/05/03 17:31:14;;;;;;;4.03;3.50;;;14.60;58.10;;;;;;10531183;28;20208;-81
2021/05/03 17:36:16;;;;;;;3.67;3.40;;;14.50;56.10;;;;;;10524241;28;20216;-80
2021/05/03 17:41:20;;;;;;;4.50;4.10;;;14.50;55.00;;;;;;10536710;28;20991;-80
2021/05/03 17:46:23;;;;;;;3.70;3.40;;;14.40;55.10;;;;;;10550596;28;20274;-80
2021/05/03 17:51:25;;;;;;;4.27;3.87;;;14.20;60.50;;;;;;10537512;28;20249;-80
2021/05/03 17:56:28;;;;;;;3.60;3.40;;;14.20;61.90;;;;;;10540687;28;20215;-80
2021/05/03 18:01:32;;;;;;;4.80;4.10;;;14.00;57.90;;;;;;10539402;28;20594;-79
2021/05/03 18:06:34;;;;;;;5.87;3.63;;;13.90;56.20;;;;;;10547439;28;20206;-81
2021/05/03 18:11:37;;;;;;;3.77;3.47;;;13.80;58.10;;;;;;10515028;28;20239;-80
2021/05/03 18:16:39;;;;;;;3.47;3.27;;;13.80;57.80;;;;;;10531207;28;20283;-79
2021/05/03 18:21:44;;;;;;;3.27;2.97;;;13.70;58.80;;;;;;10519815;28;20208;-80
2021/05/03 18:26:48;;;;;;;5.23;3.20;;;13.50;59.20;;;;;;10535081;28;20943;-78
2021/05/03 18:31:50;;;;;;;5.73;3.60;;;13.40;59.70;;;;;;10538479;28;20216;-79
2021/05/03 18:36:52;;;;;;;3.57;3.27;;;13.20;60.90;;;;;;10532681;28;20196;-80
2021/05/03 18:41:55;;;;;;;4.97;4.40;;;13.10;60.90;;;;;;10504562;28;20307;-79
2021/05/03 18:46:57;;;;;;;5.27;4.77;;;12.90;60.80;;;;;;10501005;28;20674;-79
2021/05/03 18:51:58;;;;;;;4.67;4.00;;;12.70;60.90;;;;;;10520864;28;20223;-81
2021/05/03 18:57:01;;;;;;;19.37;14.30;;;12.60;61.70;;;;;;10538237;28;20204;-78
2021/05/03 19:02:02;;;;;;;5.97;5.30;;;12.50;63.00;;;;;;10531831;28;20304;-78
2021/05/03 19:07:04;;;;;;;31.50;19.60;;;12.30;63.00;;;;;;10536212;28;20195;-78
2021/05/03 19:12:08;;;;;;;6.57;5.30;;;12.20;63.90;;;;;;10535744;28;21017;-79
2021/05/03 19:17:09;;;;;;;44.90;27.87;;;12.00;63.40;;;;;;10515618;28;20195;-80
2021/05/03 19:22:11;;;;;;;6.43;5.83;;;11.90;63.00;;;;;;10496985;28;20232;-78
2021/05/03 19:27:14;;;;;;;6.13;5.33;;;11.80;63.50;;;;;;10535154;28;20200;-77
2021/05/03 19:32:19;;;;;;;5.93;5.50;;;11.70;64.00;;;;;;10521823;28;20278;-79
2021/05/03 19:37:21;;;;;;;10.03;5.00;;;11.60;63.80;;;;;;10533518;28;20573;-80
2021/05/03 19:42:23;;;;;;;11.10;9.90;;;11.50;64.20;;;;;;10515912;28;20639;-80
2021/05/03 19:47:26;;;;;;;5.80;5.30;;;11.50;65.60;;;;;;10529764;28;20303;-79
2021/05/03 19:52:54;;;;;;;5.60;5.03;;;11.40;65.60;;;;;;10534383;28;20208;-79
2021/05/03 20:02:47;;;;;;;5.00;4.60;;;11.30;66.00;;;;;;10538318;28;20604;-79
2021/05/03 20:03:47;;;;;;;4.63;4.23;;;11.30;66.00;;;;;;10538630;28;20292;-79
2021/05/03 20:08:55;;;;;;;4.13;3.83;;;11.20;66.90;;;;;;10532931;28;20290;-79
2021/05/03 20:14:05;;;;;;;4.43;4.13;;;11.00;66.90;;;;;;10541027;28;20683;-79
2021/05/03 20:19:08;;;;;;;5.73;4.97;;;10.90;68.00;;;;;;10539106;28;20253;-79
2021/05/03 20:24:10;;;;;;;4.33;3.93;;;10.90;68.10;;;;;;10541022;28;20294;-79
2021/05/03 20:29:12;;;;;;;5.67;3.53;;;10.80;68.50;;;;;;10533418;28;20518;-79
2021/05/03 20:34:16;;;;;;;4.03;3.73;;;10.70;68.80;;;;;;10535457;28;20184;-79
2021/05/03 20:40:02;;;;;;;4.33;4.03;;;10.70;69.50;;;;;;10522341;28;20227;-79
2021/05/03 20:44:50;;;;;;;4.60;4.20;;;10.60;68.60;;;;;;10541385;28;20231;-79
2021/05/03 20:49:51;;;;;;;3.60;3.37;;;10.60;68.80;;;;;;10522484;28;20228;-79
2021/05/03 20:54:53;;;;;;;5.20;3.87;;;10.50;71.00;;;;;;10554856;28;20283;-79
2021/05/03 20:59:56;;;;;;;3.87;3.67;;;10.50;69.90;;;;;;10534346;28;20227;-79
2021/05/03 21:04:57;;;;;;;4.07;3.67;;;10.40;70.00;;;;;;10561147;28;20220;-79
2021/05/03 21:09:59;;;;;;;3.30;3.00;;;10.40;69.10;;;;;;10562022;28;20222;-79
2021/05/03 21:15:01;;;;;;;3.67;3.37;;;10.30;70.90;;;;;;10554384;28;20191;-79
2021/05/03 21:20:06;;;;;;;3.87;3.57;;;10.20;71.10;;;;;;10556127;28;20747;-79
2021/05/03 21:25:12;;;;;;;5.23;4.20;;;10.20;70.50;;;;;;10550227;28;20231;-78
2021/05/03 21:30:17;;;;;;;4.20;3.90;;;10.20;70.50;;;;;;10499543;28;20225;-78
2021/05/03 21:35:19;;;;;;;3.83;3.50;;;10.20;69.00;;;;;;10499599;28;20200;-78
2021/05/03 21:40:21;;;;;;;5.10;4.57;;;10.10;69.40;;;;;;10520926;22;20606;-79
2021/05/03 21:45:24;;;;;;;3.80;3.50;;;10.10;68.90;;;;;;10464616;28;20239;-78
2021/05/03 21:50:27;;;;;;;4.13;3.73;;;10.00;70.20;;;;;;10449519;28;20225;-78
2021/05/03 21:55:29;;;;;;;4.20;3.90;;;10.00;70.90;;;;;;10457693;28;20202;-78
2021/05/03 22:00:31;;;;;;;4.90;4.50;;;10.00;71.30;;;;;;10450652;28;20253;-78
2021/05/03 22:05:33;;;;;;;4.03;3.73;;;9.90;73.90;;;;;;10458899;28;20197;-78
2021/05/03 22:10:35;;;;;;;3.83;3.53;;;9.90;73.10;;;;;;10458515;28;20220;-78
2021/05/03 22:15:40;;;;;;;5.10;4.70;;;9.90;72.90;;;;;;10458341;28;20702;-78
2021/05/03 22:20:50;;;;;;;5.37;4.97;;;9.80;73.10;;;;;;10456238;28;20217;-78
2021/05/03 22:25:58;;;;;;;4.53;4.23;;;9.80;73.20;;;;;;10456875;28;20213;-78
2021/05/03 22:31:03;;;;;;;4.63;4.20;;;9.80;73.70;;;;;;10456089;28;20239;-78
2021/05/03 22:36:07;;;;;;;7.23;4.50;;;9.70;74.20;;;;;;10457766;28;20203;-78
2021/05/03 23:13:41;;;;;;;4.90;4.40;;;9.50;74.90;;;;;;10489494;28;20240;-78
2021/05/03 23:18:43;;;;;;;5.30;3.90;;;9.50;75.10;;;;;;10497655;28;20243;-78
2021/05/03 23:23:45;;;;;;;3.90;3.60;;;9.40;75.00;;;;;;10495734;28;20236;-78
2021/05/03 23:28:47;;;;;;;3.97;3.67;;;9.40;75.60;;;;;;10494835;28;20227;-78
2021/05/03 23:33:49;;;;;;;3.57;3.37;;;9.40;75.90;;;;;;10495740;28;20240;-78
2021/05/03 23:38:52;;;;;;;4.43;3.60;;;9.40;75.40;;;;;;10477721;28;20257;-78
2021/05/03 23:43:54;;;;;;;3.97;3.67;;;9.50;75.70;;;;;;10499025;28;20250;-78
2021/05/03 23:48:56;;;;;;;4.20;3.90;;;9.50;75.80;;;;;;10480751;28;20208;-79
2021/05/03 23:53:58;;;;;;;4.40;4.10;;;9.60;74.30;;;;;;10473651;28;20263;-78
2021/05/03 23:58:59;;;;;;;3.90;3.60;;;9.70;71.80;;;;;;10440984;28;20744;-78
